ADDS METAR Data INFO
IDs: Format: Raw Decoded Include TAF

Data at: 0510 UTC 21 Feb 2018

KUGN 201512Z 20005KT 6SM BR BKN010 OVC013 12/12 A2984 RMK AO2 RAE08 CIG 007V011 P0000 T01220122
KUGN 201455Z 24003KT 4SM -RA BR BKN008 OVC013 13/13 A2985 RMK AO2 SLP106 P0006 60013 T01330133 51017
KUGN 201445Z 24003KT 5SM -RA BR BKN008 OVC013 13/13 A2985 RMK AO2 CIG 007V010 P0006 T01330133
KUGN 201429Z 23006KT 5SM -RA BR OVC010 13/13 A2985 RMK AO2 CIG 007V014 P0004 T01330133
KUGN 201422Z COR 23006KT 5SM -RA BR OVC010 14/14 A2985 RMK AO2 CIG 007V014 P0004 T01390139
KUGN 201355Z COR 23007KT 5SM -RA BR BKN012 OVC022 13/13 A2985 RMK AO2 RAB1259 PRESRR SLP110 P0004 T01330133
KUGN 201310Z 22009KT 4SM RA BR BKN010 BKN036 OVC049 13/13 A2982 RMK AO2 RAB1259 P0001 T01330133
KUGN 201255Z COR 22010KT 8SM BKN012 OVC050 14/14 A2981 RMK AO2 RAE52 SLP097 P0003 T01390139
KUGN 201234Z 22015KT 6SM -RA BR BKN012 BKN021 OVC100 14/14 A2981 RMK AO2 P0003 T01390139
KUGN 201222Z 21014KT 10SM -RA SCT012 BKN020 OVC085 14/13 A2980 RMK AO2 P0002 T01390133
KUGN 201214Z COR 22015KT 8SM -RA BKN014 BKN065 OVC090 14/13 A2980 RMK AO2 P0002 T01390133
KUGN 201155Z 22014KT 5SM -RA BR SCT010 OVC016 14/14 A2980 RMK AO2 RAB03 SLP093 P0003 60050 70074 T01390139 10144 20133 53002
KUGN 201153Z 21014KT 6SM -RA BR BKN010 OVC016 14/14 A2980 RMK AO2 RAB03 CIG 007V013 P0002
KUGN 201144Z AUTO 21014KT 9SM -RA SCT008 OVC015 14/14 A2980 RMK AO2 RAB03 P0001 T01390139
KUGN 201055Z AUTO 20011KT 7SM BKN008 OVC110 14/14 A2976 RMK AO2 RAE34 CIG 005V012 SLP081 P0007 T01390139
KUGN 201028Z AUTO 20009KT 5SM -RA BR FEW009 BKN080 OVC110 14/14 A2976 RMK AO2 P0007 T01390139
KUGN 201014Z AUTO 20013KT 3SM -RA BR SCT010 SCT050 OVC080 14/14 A2978 RMK AO2 P0005 T01390139
KUGN 201003Z AUTO 20013KT 3SM RA BR BKN010 BKN049 OVC090 14/14 A2979 RMK AO2 P0002 T01440139
KUGN 200955Z AUTO 21011KT 4SM -RA BR SCT012 BKN035 OVC080 14/14 A2979 RMK AO2 SLP090 P0013 T01390139
KUGN 200916Z AUTO 22014KT 4SM -RA BR FEW045 OVC080 14/14 A2979 RMK AO2 P0006 T01440144
KUGN 200909Z AUTO 21014G23KT 2 1/2SM -RA BR FEW010 BKN048 OVC085 14/14 A2978 RMK AO2 P0005 T01440144
KUGN 200855Z AUTO 21017KT 4SM -RA BR FEW012 SCT050 OVC080 14/14 A2979 RMK AO2 PK WND 21026/0826 SLP090 P0015 60027 T01440144 50000
KUGN 200838Z AUTO 22016KT 3SM RA BR SCT014 BKN055 OVC080 14/14 A2979 RMK AO2 PK WND 21026/0826 P0010 T01440139
KUGN 200824Z AUTO 21016KT 3SM -RA BR BKN013 BKN050 OVC070 14/14 A2979 RMK AO2 P0006 T01440139
KUGN 200810Z AUTO 21015KT 4SM -RA BR FEW009 OVC015 14/14 A2980 RMK AO2 P0002 T01440139
KUGN 200755Z AUTO 21014KT 6SM -RA BR OVC015 14/14 A2979 RMK AO2 SLP091 P0005 T01390139
KUGN 200750Z AUTO 21014KT 6SM -RA BR SCT012 BKN018 OVC070 14/14 A2979 RMK AO2 P0004
KUGN 200743Z AUTO 21015KT 6SM -RA BR BKN014 BKN075 OVC090 14/14 A2979 RMK AO2 P0003 T01390139
KUGN 200655Z AUTO 21013KT 7SM -RA FEW045 SCT060 OVC090 14/13 A2979 RMK AO2 PK WND 21028/0600 RAB05 SLP090 P0007 T01390133
KUGN 200617Z AUTO 20020G24KT 5SM -RA BR SCT012 BKN055 OVC120 14/14 A2978 RMK AO2 PK WND 21028/0600 RAB05 P0001 T01390139
KUGN 200555Z AUTO 20018G24KT 9SM BKN012 BKN041 BKN120 14/13 A2978 RMK AO2 PK WND 20027/0519 RAE37 SLP086 P0002 60013 T01390133 10144 20028 401440028 55003
KUGN 200545Z AUTO 21018G25KT 9SM BKN012 BKN046 BKN110 14/14 A2978 RMK AO2 PK WND 20027/0519 RAE37 P0002 T01390139
KUGN 200526Z AUTO 20018G27KT 6SM -RA BR SCT012 SCT043 OVC090 14/13 A2978 RMK AO2 PK WND 20027/0519 P0002 T01390133
KUGN 200455Z AUTO 21016G23KT 6SM -RA BR BKN012 BKN080 OVC100 14/13 A2977 RMK AO2 SLP085 P0004 T01390133
KUGN 200355Z AUTO 21013KT 5SM -RA BR OVC010 13/13 A2978 RMK AO2 RAB27 SLP087 P0004 T01330133
KUGN 200255Z AUTO 20014G24KT 8SM OVC012 13/13 A2979 RMK AO2 SLP090 LAST 60003 T01330128 58004
KUGN 200231Z AUTO 20015G24KT 6SM BR SCT002 OVC010 13/13 A2979 RMK AO2 LAST T01280128
KUGN 200228Z AUTO 19014KT 1 3/4SM BR BKN002 OVC010 13/13 A2979 RMK AO2 LAST T01280128
KUGN 200224Z AUTO 20014G21KT 1/4SM FG BKN002 OVC010 13/12 A2979 RMK AO2 LAST T01280122
KUGN 200209Z AUTO VRB03KT 1/4SM FG VV001 03/03 A2979 RMK AO2 LAST T00330033
KUGN 200155Z 06003KT 1/2SM FG VV002 03/03 A2980 RMK AO2 RAE21 SLP098 P0000 T00330033
KUGN 200143Z 02004KT 3/4SM BR VV002 03/03 A2979 RMK AO2 RAE21 P0000 T00330033
KUGN 200055Z 02003KT 1SM -RA BR OVC002 03/03 A2980 RMK AO2 SLP100 P0003 T00330033
KUGN 200046Z 03004KT 1SM -RA BR OVC002 03/03 A2980 RMK AO2 P0003 T00330033
KUGN 200002Z 07003KT 1/4SM -RA FG OVC002 03/03 A2980 RMK AO2 P0000 T00330033
KUGN 192355Z COR 06003KT 1/2SM -RA FG OVC002 03/03 A2980 RMK AO2 RAB39 SLP100 P0001 60006 T00330033 10044 20033 51013
KUGN 192255Z 36003KT 1/4SM FG VV003 03/03 A2978 RMK AO2 RAE2157 SLP094 P0000 T00330033
KUGN 192155Z COR 01005KT 1/4SM FG VV002 03/03 A2978 RMK AO2 SLP093 P0000 T00330033
KUGN 192055Z 02003KT 1/4SM RA FG VV002 03/03 A2976 RMK AO2 RAB19 SLP086 P0001 60005 T00330033 55012
KUGN 192024Z 06004KT 1/4SM -RA FG VV002 04/04 A2975 RMK AO2 RAB19 P0001 T00390039
KUGN 192004Z 06003KT 3/4SM BR OVC002 04/04 A2975 RMK AO2 T00390039
KUGN 191955Z 08003KT 1SM BR OVC002 04/04 A2975 RMK AO2 SLP081 P0002 T00390039
KUGN 191927Z 11004KT 1SM BR OVC002 04/04 A2976 RMK AO2 P0002 T00440044
KUGN 191855Z 14004KT 1/2SM FG VV002 04/04 A2976 RMK AO2 RAE06B29E38 SLP085 P0002 T00440044
KUGN 191830Z 13007KT 1/4SM -RA FG VV002 04/04 A2978 RMK AO2 RAE06B29 P0001 T00440039
KUGN 191810Z 11006KT 3/4SM BR VV004 04/04 A2979 RMK AO2 RAE06 P0001 T00390039
KUGN 191755Z 10005KT 1/2SM -RA FG FEW002 OVC006 04/04 A2980 RMK AO2 RAE00B38 SLP098 P0003 60005 T00390039 10050 20033 56017
KUGN 191745Z 10004KT 1/4SM -RA FG VV005 04/04 A2981 RMK AO2 RAE00B38 P0002 T00390039
KUGN 191713Z 09004KT 3/4SM BR BKN002 OVC012 04/04 A2981 RMK AO2 RAE00 P0000 T00440044